createdAt,value
2017-08-07T00:00:00.215Z,0
2017-08-07T00:01:10.490Z,0
2017-08-07T00:02:20.803Z,0
2017-08-07T00:03:31.089Z,0
2017-08-07T00:04:41.357Z,0
2017-08-07T00:05:51.627Z,0
2017-08-07T00:07:01.905Z,0
2017-08-07T00:08:12.182Z,0
2017-08-07T00:09:22.452Z,0
2017-08-07T00:10:32.095Z,0
2017-08-07T00:11:42.050Z,0
2017-08-07T00:12:52.330Z,0
2017-08-07T00:14:02.601Z,0
2017-08-07T00:15:12.868Z,0
2017-08-07T00:16:22.202Z,0
2017-08-07T00:17:32.468Z,0
2017-08-07T00:18:42.423Z,0
2017-08-07T00:19:52.695Z,0
2017-08-07T00:21:02.652Z,0
2017-08-07T00:22:12.618Z,0
2017-08-07T00:23:22.257Z,0
2017-08-07T00:24:32.212Z,0
2017-08-07T00:25:42.478Z,0
2017-08-07T00:26:52.432Z,0
2017-08-07T00:28:02.706Z,0
2017-08-07T00:29:12.975Z,0
2017-08-07T00:30:22.613Z,0
2017-08-07T00:31:32.568Z,0
2017-08-07T00:32:42.530Z,0
2017-08-07T00:33:52.486Z,0
2017-08-07T00:35:02.748Z,0
2017-08-07T00:36:13.012Z,0
2017-08-07T00:37:22.653Z,0
2017-08-07T00:38:32.920Z,0
2017-08-07T00:39:43.188Z,0
2017-08-07T00:40:53.143Z,0
2017-08-07T00:42:03.102Z,0
2017-08-07T00:43:13.062Z,0
2017-08-07T00:44:22.703Z,0
2017-08-07T00:45:32.655Z,0
2017-08-07T00:46:42.926Z,0
2017-08-07T00:47:52.880Z,0
2017-08-07T00:49:02.840Z,0
2017-08-07T00:50:13.186Z,0
2017-08-07T00:51:23.464Z,0
2017-08-07T00:52:33.106Z,0
2017-08-07T00:53:43.377Z,0
2017-08-07T00:54:53.653Z,0
2017-08-07T00:56:03.923Z,0
2017-08-07T00:57:13.568Z,0
2017-08-07T00:58:23.845Z,0
2017-08-07T00:59:34.111Z,0
2017-08-07T01:00:44.376Z,0
2017-08-07T01:01:54.650Z,0
2017-08-07T01:03:04.918Z,0
2017-08-07T01:04:15.196Z,0
2017-08-07T01:05:25.149Z,0
2017-08-07T01:06:35.416Z,0
2017-08-07T01:07:45.682Z,0
2017-08-07T01:08:55.637Z,0
2017-08-07T01:10:05.907Z,0
2017-08-07T01:11:15.864Z,0
2017-08-07T01:12:26.134Z,0
2017-08-07T01:13:36.402Z,0
2017-08-07T01:14:46.680Z,0
2017-08-07T01:15:56.955Z,0
2017-08-07T01:17:07.226Z,0
2017-08-07T01:18:17.504Z,0
2017-08-07T01:19:27.779Z,0
2017-08-07T01:20:38.048Z,0
2017-08-07T01:21:48.320Z,0
2017-08-07T01:22:58.589Z,0
2017-08-07T01:24:08.857Z,0
2017-08-07T01:25:18.809Z,0
2017-08-07T01:26:29.098Z,0
2017-08-07T01:27:39.375Z,0
2017-08-07T01:28:49.644Z,0
2017-08-07T01:29:59.916Z,0
2017-08-07T01:31:10.184Z,0
2017-08-07T01:32:20.461Z,0
2017-08-07T01:33:30.726Z,0
2017-08-07T01:34:40.680Z,0
2017-08-07T01:35:50.634Z,0
2017-08-07T01:37:00.588Z,0
2017-08-07T01:38:10.546Z,0
2017-08-07T01:39:20.814Z,0
2017-08-07T01:40:31.089Z,0
2017-08-07T01:41:41.360Z,0
2017-08-07T01:42:51.640Z,0
2017-08-07T01:44:01.906Z,0
2017-08-07T01:45:11.864Z,0
2017-08-07T01:46:22.129Z,0
2017-08-07T01:47:32.087Z,0
2017-08-07T01:48:42.359Z,0
2017-08-07T01:49:52.651Z,0
2017-08-07T01:51:02.918Z,0
2017-08-07T01:52:13.189Z,0
2017-08-07T01:53:23.552Z,0
2017-08-07T01:54:33.836Z,0
2017-08-07T01:55:44.119Z,0
2017-08-07T01:56:54.388Z,0
2017-08-07T01:58:04.654Z,0
2017-08-07T01:59:14.961Z,0
2017-08-07T02:00:25.234Z,0
2017-08-07T02:01:35.515Z,0
2017-08-07T02:02:45.793Z,0
2017-08-07T02:03:55.749Z,0
2017-08-07T02:05:05.725Z,0
2017-08-07T02:06:16.001Z,0
2017-08-07T02:07:25.955Z,0
2017-08-07T02:08:36.226Z,0
2017-08-07T02:09:46.499Z,0
2017-08-07T02:10:56.454Z,0
2017-08-07T02:12:06.098Z,0
2017-08-07T02:13:16.366Z,0
2017-08-07T02:14:26.648Z,0
2017-08-07T02:15:36.919Z,4
2017-08-07T02:16:47.183Z,4
2017-08-07T02:17:57.530Z,4
2017-08-07T02:19:07.483Z,0
2017-08-07T02:20:17.437Z,0
2017-08-07T02:21:27.084Z,0
2017-08-07T02:22:37.351Z,4
2017-08-07T02:23:47.620Z,4
2017-08-07T02:24:57.890Z,4
2017-08-07T02:26:08.164Z,0
2017-08-07T02:27:18.121Z,4
2017-08-07T02:28:28.114Z,4
2017-08-07T02:29:38.067Z,4
2017-08-07T02:30:48.335Z,4
2017-08-07T02:31:58.301Z,4
2017-08-07T02:33:08.572Z,8
2017-08-07T02:34:18.530Z,8
2017-08-07T02:35:28.811Z,8
2017-08-07T02:36:39.085Z,8
2017-08-07T02:37:49.367Z,12
2017-08-07T02:38:59.019Z,8
2017-08-07T02:40:09.329Z,8
2017-08-07T02:41:19.289Z,12
2017-08-07T02:42:29.563Z,12
2017-08-07T02:43:39.527Z,16
2017-08-07T02:44:49.803Z,16
2017-08-07T02:46:00.078Z,20
2017-08-07T02:47:10.349Z,24
2017-08-07T02:48:20.618Z,24
2017-08-07T02:49:30.887Z,28
2017-08-07T02:50:41.172Z,28
2017-08-07T02:51:51.455Z,32
2017-08-07T02:53:01.733Z,36
2017-08-07T02:54:11.692Z,36
2017-08-07T02:55:21.970Z,40
2017-08-07T02:56:32.242Z,44
2017-08-07T02:57:42.515Z,48
2017-08-07T02:58:52.778Z,52
2017-08-07T03:00:02.738Z,60
2017-08-07T03:01:12.698Z,64
2017-08-07T03:02:22.661Z,68
2017-08-07T03:03:32.949Z,76
2017-08-07T03:04:42.910Z,80
2017-08-07T03:05:53.188Z,84
2017-08-07T03:07:03.462Z,88
2017-08-07T03:08:13.733Z,96
2017-08-07T03:09:24.006Z,104
2017-08-07T03:10:34.305Z,112
2017-08-07T03:11:44.573Z,120
2017-08-07T03:12:54.841Z,128
2017-08-07T03:14:05.108Z,132
2017-08-07T03:15:15.383Z,140
2017-08-07T03:16:25.340Z,148
2017-08-07T03:17:35.617Z,156
2017-08-07T03:18:45.582Z,168
2017-08-07T03:19:55.852Z,176
2017-08-07T03:21:06.120Z,192
2017-08-07T03:22:16.090Z,204
2017-08-07T03:23:25.740Z,220
2017-08-07T03:24:36.011Z,236
2017-08-07T03:25:46.280Z,248
2017-08-07T03:26:56.548Z,268
2017-08-07T03:28:06.511Z,288
2017-08-07T03:29:16.466Z,304
2017-08-07T03:30:26.754Z,320
2017-08-07T03:31:37.034Z,336
2017-08-07T03:32:47.301Z,348
2017-08-07T03:33:57.568Z,360
2017-08-07T03:35:07.524Z,372
2017-08-07T03:36:17.793Z,392
2017-08-07T03:37:28.076Z,416
2017-08-07T03:38:38.346Z,432
2017-08-07T03:39:47.986Z,440
2017-08-07T03:40:58.259Z,436
2017-08-07T03:42:08.220Z,436
2017-08-07T03:43:18.487Z,440
2017-08-07T03:44:28.759Z,452
2017-08-07T03:45:39.027Z,456
2017-08-07T03:46:49.296Z,468
2017-08-07T03:47:59.261Z,476
2017-08-07T03:49:09.532Z,484
2017-08-07T03:50:18.858Z,496
2017-08-07T03:51:29.131Z,504
2017-08-07T03:52:39.088Z,516
2017-08-07T03:53:49.382Z,532
2017-08-07T03:54:59.351Z,560
2017-08-07T03:56:09.623Z,588
2017-08-07T03:57:19.897Z,624
2017-08-07T03:58:29.551Z,668
2017-08-07T03:59:39.834Z,712
2017-08-07T04:00:50.108Z,764
2017-08-07T04:02:00.074Z,820
2017-08-07T04:03:10.341Z,888
2017-08-07T04:04:20.304Z,964
2017-08-07T04:05:30.575Z,1052
2017-08-07T04:06:40.848Z,1136
2017-08-07T04:07:50.812Z,1200
2017-08-07T04:09:01.095Z,1244
2017-08-07T04:10:11.053Z,1268
2017-08-07T04:11:21.008Z,1292
2017-08-07T04:12:31.278Z,1320
2017-08-07T04:13:41.234Z,1376
2017-08-07T04:14:51.506Z,1452
2017-08-07T04:16:01.776Z,1540
2017-08-07T04:17:12.053Z,1624
2017-08-07T04:18:22.323Z,1684
2017-08-07T04:19:32.591Z,1696
2017-08-07T04:20:42.856Z,1684
2017-08-07T04:21:52.810Z,1688
2017-08-07T04:23:03.091Z,1712
2017-08-07T04:24:13.048Z,1752
2017-08-07T04:25:23.013Z,1804
2017-08-07T04:26:32.657Z,1872
2017-08-07T04:27:42.929Z,1944
2017-08-07T04:28:53.194Z,2000
2017-08-07T04:30:03.464Z,2016
2017-08-07T04:31:13.437Z,2008
2017-08-07T04:32:23.712Z,1976
2017-08-07T04:33:33.986Z,1948
2017-08-07T04:34:43.950Z,1924
2017-08-07T04:35:53.911Z,1940
2017-08-07T04:37:03.875Z,2004
2017-08-07T04:38:14.159Z,2120
2017-08-07T04:39:24.113Z,2240
2017-08-07T04:40:34.386Z,2324
2017-08-07T04:41:44.674Z,2356
2017-08-07T04:42:54.944Z,2344
2017-08-07T04:44:05.218Z,2316
2017-08-07T04:45:15.184Z,2304
2017-08-07T04:46:25.464Z,2308
2017-08-07T04:47:35.733Z,2348
2017-08-07T04:48:45.374Z,2408
2017-08-07T04:49:55.651Z,2456
2017-08-07T04:51:05.935Z,2496
2017-08-07T04:52:16.205Z,2488
2017-08-07T04:53:26.481Z,2428
2017-08-07T04:54:36.770Z,2360
2017-08-07T04:55:47.049Z,2320
2017-08-07T04:56:57.008Z,2308
2017-08-07T04:58:07.278Z,2320
2017-08-07T04:59:17.227Z,2336
2017-08-07T05:00:27.181Z,2408
2017-08-07T05:01:37.454Z,2352
2017-08-07T05:02:47.766Z,2372
2017-08-07T05:03:58.034Z,2468
2017-08-07T05:05:08.301Z,2496
2017-08-07T05:06:18.567Z,2616
2017-08-07T05:07:28.212Z,2744
2017-08-07T05:08:38.483Z,2832
2017-08-07T05:09:48.445Z,2880
2017-08-07T05:10:58.738Z,2796
2017-08-07T05:12:08.381Z,2616
2017-08-07T05:13:18.682Z,2456
2017-08-07T05:14:28.950Z,2348
2017-08-07T05:15:39.226Z,2300
2017-08-07T05:16:49.496Z,2284
2017-08-07T05:17:59.454Z,2316
2017-08-07T05:19:09.737Z,2388
2017-08-07T05:20:20.008Z,2488
2017-08-07T05:21:29.960Z,2712
2017-08-07T05:22:40.235Z,2840
2017-08-07T05:23:50.505Z,2840
2017-08-07T05:25:00.772Z,2720
2017-08-07T05:26:10.738Z,2608
2017-08-07T05:27:21.011Z,2520
2017-08-07T05:28:30.657Z,2464
2017-08-07T05:29:40.614Z,2408
2017-08-07T05:30:50.882Z,2364
2017-08-07T05:32:00.835Z,2324
2017-08-07T05:33:11.104Z,2304
2017-08-07T05:34:21.075Z,2308
2017-08-07T05:35:31.041Z,2348
2017-08-07T05:36:41.002Z,2444
2017-08-07T05:37:51.283Z,2560
2017-08-07T05:39:01.550Z,2676
2017-08-07T05:40:11.818Z,2792
2017-08-07T05:41:22.083Z,2888
2017-08-07T05:42:32.349Z,2952
2017-08-07T05:43:42.626Z,3000
2017-08-07T05:44:52.593Z,3036
2017-08-07T05:46:02.867Z,3076
2017-08-07T05:47:13.138Z,3140
2017-08-07T05:48:23.411Z,3200
2017-08-07T05:49:33.685Z,3224
2017-08-07T05:50:43.939Z,3252
2017-08-07T05:51:53.583Z,3344
2017-08-07T05:53:03.852Z,3400
2017-08-07T05:54:14.121Z,3436
2017-08-07T05:55:24.441Z,3396
2017-08-07T05:56:34.742Z,3324
2017-08-07T05:57:44.750Z,3336
2017-08-07T05:58:55.023Z,3184
2017-08-07T06:00:05.305Z,3132
2017-08-07T06:01:15.273Z,3272
2017-08-07T06:02:25.555Z,3456
2017-08-07T06:03:35.525Z,3584
2017-08-07T06:04:45.791Z,3732
2017-08-07T06:05:55.797Z,3912
2017-08-07T06:07:06.063Z,3992
2017-08-07T06:08:16.023Z,4000
2017-08-07T06:09:26.297Z,3892
2017-08-07T06:10:36.566Z,3776
2017-08-07T06:11:46.835Z,3796
2017-08-07T06:12:57.130Z,3960
2017-08-07T06:14:07.421Z,4204
2017-08-07T06:15:17.693Z,4304
2017-08-07T06:16:27.965Z,4408
2017-08-07T06:17:37.605Z,4700
2017-08-07T06:18:47.902Z,4720
2017-08-07T06:19:58.209Z,4684
2017-08-07T06:21:08.488Z,4848
2017-08-07T06:22:20.780Z,4604
2017-08-07T06:23:31.061Z,4260
2017-08-07T06:24:41.328Z,3916
2017-08-07T06:25:51.599Z,3584
2017-08-07T06:27:01.560Z,3348
2017-08-07T06:28:11.833Z,3288
2017-08-07T06:29:21.804Z,3648
2017-08-07T06:30:32.080Z,3620
2017-08-07T06:31:42.040Z,3476
2017-08-07T06:32:52.013Z,3464
2017-08-07T06:34:02.310Z,3536
2017-08-07T06:35:12.582Z,3544
2017-08-07T06:36:22.853Z,3640
2017-08-07T06:37:33.128Z,3712
2017-08-07T06:38:43.395Z,3820
2017-08-07T06:39:53.351Z,3960
2017-08-07T06:41:03.617Z,3900
2017-08-07T06:42:13.892Z,3924
2017-08-07T06:43:23.849Z,3984
2017-08-07T06:44:33.806Z,4044
2017-08-07T06:45:44.076Z,4080
2017-08-07T06:46:53.721Z,4088
2017-08-07T06:48:03.994Z,4048
2017-08-07T06:49:14.269Z,3968
2017-08-07T06:50:24.549Z,3684
2017-08-07T06:51:34.504Z,3508
2017-08-07T06:52:44.463Z,3396
2017-08-07T06:53:54.732Z,3304
2017-08-07T06:55:05.018Z,3240
2017-08-07T06:56:15.296Z,3224
2017-08-07T06:57:25.567Z,3428
2017-08-07T06:58:35.846Z,3576
2017-08-07T06:59:46.115Z,3628
2017-08-07T07:00:56.082Z,3976
2017-08-07T07:02:06.042Z,3760
2017-08-07T07:03:16.351Z,3772
2017-08-07T07:04:26.619Z,3776
2017-08-07T07:05:36.897Z,3676
2017-08-07T07:06:47.170Z,3684
2017-08-07T07:07:57.446Z,3700
2017-08-07T07:09:07.747Z,3676
2017-08-07T07:10:18.048Z,3656
2017-08-07T07:11:27.718Z,3640
2017-08-07T07:12:37.691Z,3616
2017-08-07T07:13:47.970Z,3596
2017-08-07T07:14:57.924Z,3600
2017-08-07T07:16:08.210Z,3628
2017-08-07T07:17:18.172Z,3680
2017-08-07T07:18:28.134Z,3756
2017-08-07T07:19:38.408Z,3844
2017-08-07T07:20:48.688Z,3948
2017-08-07T07:21:58.963Z,4024
2017-08-07T07:23:09.241Z,4080
2017-08-07T07:24:19.515Z,4128
2017-08-07T07:25:29.788Z,4184
2017-08-07T07:26:40.063Z,4268
2017-08-07T07:27:50.338Z,4392
2017-08-07T07:29:00.611Z,4548
2017-08-07T07:30:10.888Z,4740
2017-08-07T07:31:21.163Z,4948
2017-08-07T07:32:31.128Z,5168
2017-08-07T07:33:41.411Z,5352
2017-08-07T07:34:51.682Z,5464
2017-08-07T07:36:01.961Z,5536
2017-08-07T07:37:11.926Z,5592
2017-08-07T07:38:22.209Z,5620
2017-08-07T07:39:32.480Z,5600
2017-08-07T07:40:42.757Z,5496
2017-08-07T07:41:53.039Z,5328
2017-08-07T07:43:03.313Z,5144
2017-08-07T07:44:13.592Z,5012
2017-08-07T07:45:23.862Z,4952
2017-08-07T07:46:33.818Z,4976
2017-08-07T07:47:43.776Z,5068
2017-08-07T07:48:54.056Z,5252
2017-08-07T07:50:04.020Z,5528
2017-08-07T07:51:14.297Z,5912
2017-08-07T07:52:24.568Z,6364
2017-08-07T07:53:34.843Z,6792
2017-08-07T07:54:44.810Z,7020
2017-08-07T07:55:55.114Z,6912
2017-08-07T07:57:05.392Z,6444
2017-08-07T07:58:15.663Z,5840
2017-08-07T07:59:25.622Z,5272
2017-08-07T08:00:35.582Z,4820
2017-08-07T08:01:45.859Z,4472
2017-08-07T08:02:56.136Z,4232
2017-08-07T08:04:06.425Z,4052
2017-08-07T08:05:16.708Z,3944
2017-08-07T08:06:26.985Z,3872
2017-08-07T08:07:39.358Z,3804
2017-08-07T08:08:49.636Z,3748
2017-08-07T08:09:59.910Z,3700
2017-08-07T08:11:10.185Z,3652
2017-08-07T08:12:20.157Z,3600
2017-08-07T08:13:30.123Z,3572
2017-08-07T08:14:39.785Z,3544
2017-08-07T08:15:49.742Z,3516
2017-08-07T08:17:00.021Z,3512
2017-08-07T08:18:10.315Z,3500
2017-08-07T08:19:20.600Z,3508
2017-08-07T08:20:30.883Z,3512
2017-08-07T08:21:41.171Z,3496
2017-08-07T08:22:51.449Z,3488
2017-08-07T08:24:01.724Z,3488
2017-08-07T08:25:11.996Z,3504
2017-08-07T08:26:22.271Z,3532
2017-08-07T08:27:32.558Z,3492
2017-08-07T08:28:42.840Z,3580
2017-08-07T08:29:53.113Z,3576
2017-08-07T08:31:03.086Z,3568
2017-08-07T08:32:13.382Z,3580
2017-08-07T08:33:23.664Z,3696
2017-08-07T08:34:33.940Z,3988
2017-08-07T08:35:44.222Z,4404
2017-08-07T08:36:54.491Z,4964
2017-08-07T08:38:04.765Z,5168
2017-08-07T08:39:14.761Z,5076
2017-08-07T08:40:25.040Z,4944
2017-08-07T08:41:35.329Z,4840
2017-08-07T08:42:44.975Z,4992
2017-08-07T08:43:54.934Z,5172
2017-08-07T08:45:04.586Z,5116
2017-08-07T08:46:14.546Z,5320
2017-08-07T08:47:24.838Z,5464
2017-08-07T08:48:35.113Z,5608
2017-08-07T08:49:45.386Z,5768
2017-08-07T08:50:55.659Z,6120
2017-08-07T08:52:05.618Z,6140
2017-08-07T08:53:15.895Z,6168
2017-08-07T08:54:26.193Z,5916
2017-08-07T08:55:36.469Z,5864
2017-08-07T08:56:46.428Z,5760
2017-08-07T08:57:56.412Z,5532
2017-08-07T08:59:06.688Z,5324
2017-08-07T09:00:16.968Z,5240
2017-08-07T09:01:27.241Z,5208
2017-08-07T09:02:37.514Z,5104
2017-08-07T09:03:47.797Z,4996
2017-08-07T09:04:58.073Z,4952
2017-08-07T09:06:08.356Z,5016
2017-08-07T09:07:18.625Z,5052
2017-08-07T09:08:28.292Z,5100
2017-08-07T09:09:38.569Z,4704
2017-08-07T09:10:48.845Z,4972
2017-08-07T09:11:59.116Z,4680
2017-08-07T09:13:09.079Z,4548
2017-08-07T09:14:19.357Z,4364
2017-08-07T09:15:29.319Z,4236
2017-08-07T09:16:39.627Z,4120
2017-08-07T09:17:49.904Z,4060
2017-08-07T09:19:00.182Z,4008
2017-08-07T09:20:10.145Z,3988
2017-08-07T09:21:20.426Z,3972
2017-08-07T09:22:30.711Z,3972
2017-08-07T09:23:40.978Z,3976
2017-08-07T09:24:50.941Z,3992
2017-08-07T09:26:01.237Z,4000
2017-08-07T09:27:11.207Z,4004
2017-08-07T09:28:21.487Z,4016
2017-08-07T09:29:31.759Z,4032
2017-08-07T09:30:42.043Z,4048
2017-08-07T09:31:52.318Z,4060
2017-08-07T09:33:02.284Z,4048
2017-08-07T09:34:12.560Z,3588
2017-08-07T09:35:22.836Z,4260
2017-08-07T09:36:33.113Z,4316
2017-08-07T09:37:43.073Z,4400
2017-08-07T09:38:53.348Z,3556
2017-08-07T09:40:02.996Z,3684
2017-08-07T09:41:12.954Z,3724
2017-08-07T09:42:22.913Z,3656
2017-08-07T09:43:32.880Z,3680
2017-08-07T09:44:43.172Z,4548
2017-08-07T09:45:53.469Z,4352
2017-08-07T09:47:03.428Z,4720
2017-08-07T09:48:13.391Z,4788
2017-08-07T09:49:23.670Z,4804
2017-08-07T09:50:33.959Z,5376
2017-08-07T09:51:44.240Z,5360
2017-08-07T09:52:54.513Z,5216
2017-08-07T09:54:04.791Z,6696
2017-08-07T09:55:15.068Z,8104
2017-08-07T09:56:25.029Z,7280
2017-08-07T09:57:35.312Z,6536
2017-08-07T09:58:44.966Z,6188
2017-08-07T09:59:54.929Z,5720
2017-08-07T10:01:04.897Z,6168
2017-08-07T10:02:15.173Z,6584
2017-08-07T10:03:24.821Z,6104
2017-08-07T10:04:34.470Z,7208
2017-08-07T10:05:44.428Z,8296
2017-08-07T10:06:54.706Z,10260
2017-08-07T10:08:04.998Z,10268
2017-08-07T10:09:14.963Z,10224
2017-08-07T10:10:24.620Z,9444
2017-08-07T10:11:34.595Z,9336
2017-08-07T10:12:44.875Z,8600
2017-08-07T10:13:55.156Z,6620
2017-08-07T10:15:05.433Z,6600
2017-08-07T10:16:15.092Z,7080
2017-08-07T10:17:25.362Z,7616
2017-08-07T10:18:35.350Z,7564
2017-08-07T10:19:45.628Z,7024
2017-08-07T10:20:55.907Z,7044
2017-08-07T10:22:06.190Z,7140
2017-08-07T10:23:16.472Z,6912
2017-08-07T10:24:26.755Z,7176
2017-08-07T10:25:37.032Z,7200
2017-08-07T10:26:47.314Z,7356
2017-08-07T10:27:57.593Z,7288
2017-08-07T10:29:07.241Z,7112
2017-08-07T10:30:17.521Z,7624
2017-08-07T10:31:27.802Z,7768
2017-08-07T10:32:37.140Z,7112
2017-08-07T10:33:47.419Z,7512
2017-08-07T10:34:57.379Z,8476
2017-08-07T10:36:07.338Z,7844
2017-08-07T10:37:17.621Z,7064
2017-08-07T10:38:27.901Z,6548
2017-08-07T10:39:37.867Z,6312
2017-08-07T10:40:47.826Z,6480
2017-08-07T10:41:57.791Z,6876
2017-08-07T10:43:07.752Z,7388
2017-08-07T10:44:17.714Z,8056
2017-08-07T10:45:27.677Z,8340
2017-08-07T10:46:37.647Z,8124
2017-08-07T10:47:47.627Z,8100
2017-08-07T10:48:57.907Z,8712
2017-08-07T10:50:08.197Z,9848
2017-08-07T10:51:17.533Z,10936
2017-08-07T10:52:27.818Z,10928
2017-08-07T10:53:38.095Z,10736
2017-08-07T10:54:47.435Z,10544
2017-08-07T10:55:57.398Z,9340
2017-08-07T10:57:07.372Z,8656
2017-08-07T10:58:17.337Z,8344
2017-08-07T10:59:27.303Z,8268
2017-08-07T11:00:37.286Z,8276
2017-08-07T11:01:47.261Z,8204
2017-08-07T11:02:57.473Z,8420
2017-08-07T11:04:07.767Z,8764
2017-08-07T11:05:18.060Z,9000
2017-08-07T11:06:28.042Z,8840
2017-08-07T11:07:38.319Z,8096
2017-08-07T11:08:48.599Z,7620
2017-08-07T11:09:58.561Z,7388
2017-08-07T11:11:09.182Z,7196
2017-08-07T11:12:18.837Z,7148
2017-08-07T11:13:29.110Z,7072
2017-08-07T11:14:38.766Z,6952
2017-08-07T11:15:49.052Z,6964
2017-08-07T11:16:59.341Z,7036
2017-08-07T11:18:09.701Z,7072
2017-08-07T11:19:19.986Z,7128
2017-08-07T11:20:29.945Z,7180
2017-08-07T11:21:39.914Z,7264
2017-08-07T11:22:49.561Z,7340
2017-08-07T11:23:59.842Z,7340
2017-08-07T11:25:10.186Z,7396
2017-08-07T11:26:20.467Z,7680
2017-08-07T11:27:30.743Z,7992
2017-08-07T11:28:41.015Z,8148
2017-08-07T11:29:51.296Z,8756
2017-08-07T11:31:01.257Z,10112
2017-08-07T11:32:11.225Z,13192
2017-08-07T11:33:20.875Z,14220
2017-08-07T11:34:31.153Z,10768
2017-08-07T11:35:41.429Z,14932
2017-08-07T11:36:51.706Z,9448
2017-08-07T11:38:01.387Z,11396
2017-08-07T11:39:11.664Z,11104
2017-08-07T11:40:21.630Z,8224
2017-08-07T11:41:31.620Z,7792
2017-08-07T11:42:41.902Z,7416
2017-08-07T11:43:51.887Z,7436
2017-08-07T11:45:02.164Z,8224
2017-08-07T11:46:12.441Z,13824
2017-08-07T11:47:22.720Z,12932
2017-08-07T11:48:33.008Z,15052
2017-08-07T11:49:43.288Z,17760
2017-08-07T11:50:53.588Z,14268
2017-08-07T11:52:03.548Z,13460
2017-08-07T11:53:13.513Z,13632
2017-08-07T11:54:23.791Z,34528
2017-08-07T11:55:34.083Z,13748
2017-08-07T11:56:44.368Z,13120
2017-08-07T11:57:54.652Z,12388
2017-08-07T11:59:04.931Z,14784
2017-08-07T12:00:15.205Z,9996
2017-08-07T12:01:25.501Z,8532
2017-08-07T12:02:35.789Z,7932
2017-08-07T12:03:45.457Z,8060
2017-08-07T12:04:55.742Z,8496
2017-08-07T12:06:05.764Z,8980
2017-08-07T12:07:16.065Z,9384
2017-08-07T12:08:26.344Z,9284
2017-08-07T12:09:36.624Z,8400
2017-08-07T12:10:46.904Z,7624
2017-08-07T12:11:56.563Z,7088
2017-08-07T12:13:08.848Z,6712
2017-08-07T12:14:19.131Z,6632
2017-08-07T12:15:29.410Z,6992
2017-08-07T12:16:39.699Z,7716
2017-08-07T12:17:49.980Z,9060
2017-08-07T12:19:00.257Z,10648
2017-08-07T12:20:10.543Z,12376
2017-08-07T12:21:20.506Z,14040
2017-08-07T12:22:30.800Z,14532
2017-08-07T12:23:40.452Z,15028
2017-08-07T12:24:49.787Z,20384
2017-08-07T12:26:00.072Z,35648
2017-08-07T12:27:10.352Z,40992
2017-08-07T12:28:20.634Z,40864
2017-08-07T12:29:30.915Z,25856
2017-08-07T12:30:41.190Z,25856
2017-08-07T12:31:50.531Z,33632
2017-08-07T12:33:00.813Z,39808
2017-08-07T12:34:11.097Z,38496
2017-08-07T12:35:21.065Z,36096
2017-08-07T12:36:31.056Z,36128
2017-08-07T12:37:41.036Z,37728
2017-08-07T12:38:51.313Z,36864
2017-08-07T12:40:00.966Z,37600
2017-08-07T12:41:11.255Z,38528
2017-08-07T12:42:21.221Z,36128
2017-08-07T12:43:31.503Z,37664
2017-08-07T12:44:41.805Z,36256
2017-08-07T12:45:52.087Z,35744
2017-08-07T12:47:02.053Z,36832
2017-08-07T12:48:12.336Z,34592
2017-08-07T12:49:22.616Z,34912
2017-08-07T12:50:32.268Z,27328
2017-08-07T12:51:42.557Z,26880
2017-08-07T12:52:52.535Z,22144
2017-08-07T12:54:02.506Z,21728
2017-08-07T12:55:12.478Z,29984
2017-08-07T12:56:22.450Z,30048
2017-08-07T12:57:32.417Z,30752
2017-08-07T12:58:42.072Z,29856
2017-08-07T12:59:52.046Z,29536
2017-08-07T13:01:02.329Z,30816
2017-08-07T13:02:12.614Z,19808
2017-08-07T13:03:22.274Z,19680
2017-08-07T13:04:32.559Z,19264
2017-08-07T13:05:42.843Z,23552
2017-08-07T13:06:52.501Z,30656
2017-08-07T13:08:02.785Z,21440
2017-08-07T13:09:12.818Z,25024
2017-08-07T13:10:22.785Z,27360
2017-08-07T13:11:32.749Z,25024
2017-08-07T13:12:42.718Z,26112
2017-08-07T13:13:52.998Z,22784
2017-08-07T13:15:02.963Z,26720
2017-08-07T13:16:12.620Z,28224
2017-08-07T13:17:22.592Z,26080
2017-08-07T13:18:32.877Z,21248
2017-08-07T13:19:43.160Z,19424
2017-08-07T13:20:52.811Z,21312
2017-08-07T13:22:02.776Z,19584
2017-08-07T13:23:12.743Z,16352
2017-08-07T13:24:22.706Z,15628
2017-08-07T13:25:32.985Z,12532
2017-08-07T13:26:42.949Z,10964
2017-08-07T13:27:52.920Z,8772
2017-08-07T13:29:02.901Z,7780
2017-08-07T13:30:12.593Z,6992
2017-08-07T13:31:22.873Z,6624
2017-08-07T13:32:32.838Z,6968
2017-08-07T13:33:42.803Z,7348
2017-08-07T13:34:52.450Z,7324
2017-08-07T13:36:02.734Z,7000
2017-08-07T13:37:13.019Z,6280
2017-08-07T13:38:22.990Z,5500
2017-08-07T13:39:33.269Z,5076
2017-08-07T13:40:43.553Z,5136
2017-08-07T13:41:53.834Z,5696
2017-08-07T13:43:03.796Z,6704
2017-08-07T13:44:14.084Z,7636
2017-08-07T13:45:24.046Z,8128
2017-08-07T13:46:34.321Z,8524
2017-08-07T13:47:44.597Z,9100
2017-08-07T13:48:54.561Z,9792
2017-08-07T13:50:04.841Z,9840
2017-08-07T13:51:15.116Z,9044
2017-08-07T13:52:24.772Z,8208
2017-08-07T13:53:34.735Z,7696
2017-08-07T13:54:45.011Z,7700
2017-08-07T13:55:54.973Z,7876
2017-08-07T13:57:04.940Z,8276
2017-08-07T13:58:15.223Z,8664
2017-08-07T13:59:25.501Z,8840
2017-08-07T14:00:35.482Z,9176
2017-08-07T14:01:45.757Z,9644
2017-08-07T14:02:56.038Z,9900
2017-08-07T14:04:06.317Z,9980
2017-08-07T14:05:16.608Z,10024
2017-08-07T14:06:26.258Z,9872
2017-08-07T14:07:36.533Z,9480
2017-08-07T14:08:46.180Z,9024
2017-08-07T14:09:56.461Z,8824
2017-08-07T14:11:06.736Z,8080
2017-08-07T14:12:16.701Z,7600
2017-08-07T14:13:26.346Z,8068
2017-08-07T14:14:35.677Z,8124
2017-08-07T14:15:45.956Z,8176
2017-08-07T14:16:56.237Z,8432
2017-08-07T14:18:06.522Z,8588
2017-08-07T14:19:16.801Z,8748
2017-08-07T14:20:27.088Z,8788
2017-08-07T14:21:37.045Z,8688
2017-08-07T14:22:47.318Z,8508
2017-08-07T14:23:57.278Z,8224
2017-08-07T14:25:07.243Z,7904
2017-08-07T14:26:17.524Z,7608
2017-08-07T14:27:27.489Z,7212
2017-08-07T14:28:37.765Z,6752
2017-08-07T14:29:47.744Z,6348
2017-08-07T14:30:57.712Z,6016
2017-08-07T14:32:07.361Z,5788
2017-08-07T14:33:17.332Z,5596
2017-08-07T14:34:27.605Z,5404
2017-08-07T14:35:37.886Z,5200
2017-08-07T14:36:48.178Z,4944
2017-08-07T14:37:58.139Z,4740
2017-08-07T14:39:08.420Z,4652
2017-08-07T14:40:18.705Z,4660
2017-08-07T14:41:28.356Z,4636
2017-08-07T14:42:38.000Z,4592
2017-08-07T14:43:47.961Z,4508
2017-08-07T14:44:57.940Z,4412
2017-08-07T14:46:07.270Z,4336
2017-08-07T14:47:17.545Z,4264
2017-08-07T14:48:27.509Z,4168
2017-08-07T14:49:37.160Z,4100
2017-08-07T14:50:47.124Z,4096
2017-08-07T14:51:56.775Z,4104
2017-08-07T14:53:06.423Z,4076
2017-08-07T14:54:16.090Z,3992
2017-08-07T14:55:26.362Z,3880
2017-08-07T14:56:36.637Z,3744
2017-08-07T14:57:46.918Z,3660
2017-08-07T14:58:57.196Z,3612
2017-08-07T15:00:07.472Z,3580
2017-08-07T15:01:17.744Z,3520
2017-08-07T15:02:27.707Z,3476
2017-08-07T15:03:37.980Z,3432
2017-08-07T15:04:48.252Z,3392
2017-08-07T15:05:58.217Z,3360
2017-08-07T15:07:08.495Z,3320
2017-08-07T15:08:18.146Z,3324
2017-08-07T15:09:28.421Z,3372
2017-08-07T15:10:38.387Z,3452
2017-08-07T15:11:48.669Z,3532
2017-08-07T15:12:58.945Z,3596
2017-08-07T15:14:09.220Z,3632
2017-08-07T15:15:19.177Z,3668
2017-08-07T15:16:28.821Z,3664
2017-08-07T15:17:39.115Z,3624
2017-08-07T15:18:49.397Z,3564
2017-08-07T15:19:59.358Z,3484
2017-08-07T15:21:09.632Z,3412
2017-08-07T15:22:19.907Z,3312
2017-08-07T15:23:30.185Z,3172
2017-08-07T15:24:40.152Z,3020
2017-08-07T15:25:50.110Z,2916
2017-08-07T15:27:00.381Z,2860
2017-08-07T15:28:10.339Z,2840
2017-08-07T15:29:19.982Z,2860
2017-08-07T15:30:30.256Z,2900
2017-08-07T15:31:40.214Z,2916
2017-08-07T15:32:50.172Z,2896
2017-08-07T15:34:00.460Z,2884
2017-08-07T15:35:10.421Z,2904
2017-08-07T15:36:20.699Z,2944
2017-08-07T15:37:30.660Z,3028
2017-08-07T15:38:40.931Z,3148
2017-08-07T15:39:50.575Z,3296
2017-08-07T15:41:00.214Z,3504
2017-08-07T15:42:10.174Z,3724
2017-08-07T15:43:20.450Z,3912
2017-08-07T15:44:30.729Z,4052
2017-08-07T15:45:41.024Z,4120
2017-08-07T15:46:51.293Z,4068
2017-08-07T15:48:00.940Z,3872
2017-08-07T15:49:11.220Z,3588